createdAt,value
2023-05-16T00:01:19.497Z,7.00
2023-05-16T00:04:07.423Z,9.70
2023-05-16T00:06:54.951Z,7.05
2023-05-16T00:09:42.582Z,7.60
2023-05-16T00:12:30.493Z,6.38
2023-05-16T00:15:20.389Z,7.25
2023-05-16T00:18:07.979Z,6.60
2023-05-16T00:20:56.076Z,6.95
2023-05-16T00:23:46.487Z,6.78
2023-05-16T00:26:34.221Z,6.47
2023-05-16T00:29:21.926Z,6.88
2023-05-16T00:32:11.359Z,6.95
2023-05-16T00:34:59.292Z,7.30
2023-05-16T00:37:46.733Z,7.88
2023-05-16T00:40:34.303Z,7.80
2023-05-16T00:43:22.495Z,11.65
2023-05-16T00:46:11.696Z,10.25
2023-05-16T00:49:00.798Z,8.23
2023-05-16T00:51:49.320Z,9.27
2023-05-16T00:54:38.420Z,8.45
2023-05-16T00:57:26.815Z,8.50
2023-05-16T01:00:16.435Z,9.35
2023-05-16T01:03:04.736Z,9.18
2023-05-16T01:05:53.746Z,10.05
2023-05-16T01:08:41.583Z,11.05
2023-05-16T01:11:34.507Z,15.52
2023-05-16T01:14:27.132Z,11.25
2023-05-16T01:17:22.266Z,15.13
2023-05-16T01:20:15.334Z,13.63
2023-05-16T01:23:19.283Z,13.57
2023-05-16T01:26:16.649Z,13.27
2023-05-16T01:29:05.429Z,14.02
2023-05-16T01:31:53.209Z,12.95
2023-05-16T01:34:41.157Z,18.00
2023-05-16T01:37:31.647Z,12.70
2023-05-16T01:40:22.369Z,20.10
2023-05-16T01:43:13.596Z,12.13
2023-05-16T01:46:04.729Z,15.73
2023-05-16T01:48:54.646Z,13.57
2023-05-16T01:51:43.360Z,14.07
2023-05-16T01:54:33.501Z,12.80
2023-05-16T01:57:23.745Z,13.60
2023-05-16T02:00:13.880Z,15.55
2023-05-16T02:03:04.188Z,14.07
2023-05-16T02:05:52.528Z,16.42
2023-05-16T02:08:39.884Z,11.98
2023-05-16T02:11:27.255Z,13.65
2023-05-16T02:14:14.594Z,16.13
2023-05-16T02:17:03.556Z,13.93
2023-05-16T02:19:51.066Z,11.70
2023-05-16T02:22:39.222Z,12.15
2023-05-16T02:25:27.023Z,18.92
2023-05-16T02:28:14.757Z,14.50
2023-05-16T02:31:02.540Z,12.65
2023-05-16T02:33:51.575Z,12.30
2023-05-16T02:36:39.211Z,10.02
2023-05-16T02:39:26.816Z,10.93
2023-05-16T02:42:14.082Z,12.77
2023-05-16T02:45:01.551Z,12.95
2023-05-16T02:47:49.460Z,13.60
2023-05-16T02:50:41.024Z,12.03
2023-05-16T02:53:28.686Z,14.33
2023-05-16T02:56:16.045Z,11.85
2023-05-16T02:59:04.048Z,15.18
2023-05-16T03:01:52.149Z,16.47
2023-05-16T03:04:39.871Z,15.07
2023-05-16T03:07:28.448Z,11.88
2023-05-16T03:10:18.044Z,12.77
2023-05-16T03:13:06.544Z,12.90
2023-05-16T03:15:54.606Z,12.70
2023-05-16T03:18:41.997Z,15.27
2023-05-16T03:21:29.415Z,14.40
2023-05-16T03:24:18.145Z,13.97
2023-05-16T03:27:06.378Z,15.50
2023-05-16T03:29:53.926Z,13.77
2023-05-16T03:32:41.459Z,15.33
2023-05-16T03:35:29.261Z,15.03
2023-05-16T03:38:17.217Z,20.83
2023-05-16T03:41:06.004Z,14.93
2023-05-16T03:43:53.446Z,19.83
2023-05-16T03:46:41.031Z,14.40
2023-05-16T03:49:29.016Z,13.57
2023-05-16T03:52:16.274Z,14.95
2023-05-16T03:55:05.093Z,15.77
2023-05-16T03:57:54.589Z,15.43
2023-05-16T04:00:42.390Z,15.87
2023-05-16T04:03:30.264Z,18.03
2023-05-16T04:06:18.410Z,16.87
2023-05-16T04:09:07.202Z,17.73
2023-05-16T04:11:56.114Z,16.90
2023-05-16T04:14:45.202Z,15.43
2023-05-16T04:17:32.846Z,14.83
2023-05-16T04:20:20.355Z,18.90
2023-05-16T04:23:08.582Z,19.93
2023-05-16T04:25:56.446Z,17.90
2023-05-16T04:28:43.625Z,15.87
2023-05-16T04:31:32.337Z,18.33
2023-05-16T04:34:19.949Z,17.63
2023-05-16T04:37:08.499Z,13.70
2023-05-16T04:39:56.174Z,16.57
2023-05-16T04:42:43.562Z,15.70
2023-05-16T04:45:31.136Z,18.40
2023-05-16T04:48:19.928Z,18.03
2023-05-16T04:51:07.567Z,17.53
2023-05-16T04:53:54.876Z,15.47
2023-05-16T04:56:42.338Z,16.17
2023-05-16T04:59:29.976Z,15.30
2023-05-16T05:02:17.519Z,16.47
2023-05-16T05:05:07.209Z,16.77
2023-05-16T05:07:54.999Z,15.00
2023-05-16T05:10:42.612Z,18.50
2023-05-16T05:13:30.383Z,15.83
2023-05-16T05:16:17.826Z,15.70
2023-05-16T05:19:05.446Z,18.23
2023-05-16T05:21:54.455Z,16.87
2023-05-16T05:24:42.281Z,15.70
2023-05-16T05:27:29.892Z,16.50
2023-05-16T05:30:17.309Z,13.70
2023-05-16T05:33:04.613Z,15.20
2023-05-16T05:35:54.046Z,15.40
2023-05-16T05:38:42.800Z,18.20
2023-05-16T05:41:30.422Z,16.40
2023-05-16T05:44:17.878Z,17.73
2023-05-16T05:47:05.808Z,17.40
2023-05-16T05:49:53.327Z,15.50
2023-05-16T05:52:41.681Z,15.60
2023-05-16T05:55:30.491Z,14.80
2023-05-16T05:58:18.610Z,14.67
2023-05-16T06:01:06.082Z,14.03
2023-05-16T06:03:53.664Z,12.93
2023-05-16T06:06:41.177Z,10.80
2023-05-16T06:09:28.422Z,12.67
2023-05-16T06:12:18.058Z,13.63
2023-05-16T06:15:05.910Z,14.40
2023-05-16T06:17:53.373Z,14.60
2023-05-16T06:20:41.784Z,12.40
2023-05-16T06:23:29.369Z,14.77
2023-05-16T06:26:17.221Z,14.60
2023-05-16T06:29:06.330Z,13.13
2023-05-16T06:31:54.070Z,14.60
2023-05-16T06:34:41.701Z,9.53
2023-05-16T06:37:29.251Z,9.97
2023-05-16T06:40:16.854Z,9.93
2023-05-16T06:43:04.185Z,9.80
2023-05-16T06:45:53.187Z,9.43
2023-05-16T06:48:40.918Z,9.17
2023-05-16T06:51:28.252Z,12.05
2023-05-16T06:54:15.581Z,9.27
2023-05-16T06:57:03.957Z,8.43
2023-05-16T06:59:51.469Z,10.23
2023-05-16T07:02:40.409Z,6.83
2023-05-16T07:05:28.205Z,7.77
2023-05-16T07:08:16.129Z,10.33
2023-05-16T07:11:03.933Z,10.33
2023-05-16T07:13:51.681Z,6.73
2023-05-16T07:16:39.304Z,6.27
2023-05-16T07:19:28.653Z,6.63
2023-05-16T07:22:16.062Z,5.80
2023-05-16T07:25:04.465Z,8.37
2023-05-16T07:27:51.999Z,6.10
2023-05-16T07:30:39.373Z,6.35
2023-05-16T07:33:27.401Z,9.23
2023-05-16T07:36:17.562Z,4.87
2023-05-16T07:39:05.884Z,7.33
2023-05-16T07:41:53.451Z,6.23
2023-05-16T07:44:40.871Z,7.43
2023-05-16T07:47:28.213Z,7.40
2023-05-16T07:50:16.101Z,4.53
2023-05-16T07:53:05.182Z,7.97
2023-05-16T07:55:53.002Z,3.78
2023-05-16T07:58:40.955Z,5.93
2023-05-16T08:01:28.263Z,5.15
2023-05-16T08:04:15.649Z,4.50
2023-05-16T08:07:03.425Z,5.30
2023-05-16T08:09:52.165Z,4.50
2023-05-16T08:12:39.884Z,6.45
2023-05-16T08:15:28.972Z,5.13
2023-05-16T08:18:17.992Z,5.47
2023-05-16T08:21:07.035Z,4.90
2023-05-16T08:23:54.650Z,3.80
2023-05-16T08:26:43.787Z,3.67
2023-05-16T08:29:31.821Z,4.57
2023-05-16T08:32:19.590Z,3.20
2023-05-16T08:35:08.192Z,3.40
2023-05-16T08:37:55.806Z,5.27
2023-05-16T08:40:45.354Z,5.20
2023-05-16T08:43:35.142Z,3.50
2023-05-16T08:46:24.335Z,3.67
2023-05-16T08:49:12.349Z,3.10
2023-05-16T08:52:01.913Z,3.33
2023-05-16T08:55:05.667Z,5.17
2023-05-16T08:57:57.779Z,4.53
2023-05-16T09:00:47.193Z,3.43
2023-05-16T09:03:34.638Z,6.32
2023-05-16T09:06:22.175Z,2.47
2023-05-16T09:09:12.959Z,3.20
2023-05-16T09:12:00.768Z,4.38
2023-05-16T09:14:48.691Z,3.70
2023-05-16T09:17:41.348Z,2.50
2023-05-16T09:20:29.067Z,2.87
2023-05-16T09:23:16.506Z,2.10
2023-05-16T09:26:04.678Z,4.07
2023-05-16T09:28:56.066Z,5.20
2023-05-16T09:31:44.447Z,2.15
2023-05-16T09:34:33.827Z,2.30
2023-05-16T09:37:21.796Z,3.13
2023-05-16T09:40:11.944Z,3.75
2023-05-16T09:43:06.432Z,3.80
2023-05-16T09:45:54.298Z,3.50
2023-05-16T09:48:43.132Z,2.33
2023-05-16T09:51:32.035Z,3.90
2023-05-16T09:54:32.401Z,2.50
2023-05-16T09:57:20.719Z,2.90
2023-05-16T10:00:10.226Z,4.07
2023-05-16T10:02:59.127Z,5.72
2023-05-16T10:05:48.327Z,2.08
2023-05-16T10:08:38.248Z,4.80
2023-05-16T10:11:25.628Z,4.43
2023-05-16T10:14:13.464Z,4.40
2023-05-16T10:17:01.388Z,7.40
2023-05-16T10:19:49.310Z,9.70
2023-05-16T10:22:37.384Z,4.97
2023-05-16T10:25:29.573Z,2.60
2023-05-16T10:28:17.494Z,3.65
2023-05-16T10:31:05.075Z,4.82
2023-05-16T10:33:52.436Z,3.40
2023-05-16T10:36:40.433Z,6.70
2023-05-16T10:39:27.998Z,4.97
2023-05-16T10:42:18.409Z,4.38
2023-05-16T10:45:17.846Z,4.70
2023-05-16T10:48:06.556Z,4.35
2023-05-16T10:50:54.089Z,4.22
2023-05-16T10:53:41.747Z,3.95
2023-05-16T10:56:29.684Z,4.85
2023-05-16T10:59:28.624Z,6.45
2023-05-16T11:02:26.732Z,4.35
2023-05-16T11:05:15.528Z,3.58
2023-05-16T11:08:07.338Z,4.22
2023-05-16T11:11:21.685Z,5.38
2023-05-16T11:14:09.049Z,5.95
2023-05-16T11:17:05.380Z,7.05
2023-05-16T11:19:53.738Z,5.10
2023-05-16T11:22:41.705Z,4.85
2023-05-16T11:25:39.258Z,7.97
2023-05-16T11:28:27.820Z,7.18
2023-05-16T11:31:16.375Z,5.65
2023-05-16T11:34:05.637Z,4.57
2023-05-16T11:36:53.364Z,4.25
2023-05-16T11:39:41.078Z,4.57
2023-05-16T11:42:31.397Z,5.43
2023-05-16T11:45:19.714Z,3.28
2023-05-16T11:48:08.583Z,4.45
2023-05-16T11:50:58.099Z,5.68
2023-05-16T11:53:46.313Z,7.35
2023-05-16T11:56:34.108Z,6.25
2023-05-16T11:59:22.086Z,4.15
2023-05-16T12:02:10.724Z,2.85
2023-05-16T12:04:58.165Z,4.25
2023-05-16T12:07:47.091Z,3.38
2023-05-16T12:10:35.168Z,3.60
2023-05-16T12:13:24.563Z,4.95
2023-05-16T12:16:12.472Z,6.38
2023-05-16T12:19:00.277Z,5.32
2023-05-16T12:21:47.879Z,7.00
2023-05-16T12:24:37.134Z,5.07
2023-05-16T12:27:24.803Z,5.53
2023-05-16T12:30:13.066Z,3.80
2023-05-16T12:33:00.923Z,4.40
2023-05-16T12:35:49.021Z,4.25
2023-05-16T12:38:36.704Z,4.10
2023-05-16T12:41:25.503Z,6.40
2023-05-16T12:44:14.456Z,5.63
2023-05-16T12:47:02.013Z,2.92
2023-05-16T12:49:51.266Z,4.93
2023-05-16T12:52:38.869Z,1.70
2023-05-16T12:55:26.238Z,7.32
2023-05-16T12:58:14.993Z,6.45
2023-05-16T13:01:03.696Z,5.10
2023-05-16T13:03:51.599Z,8.07
2023-05-16T13:06:56.545Z,3.88
2023-05-16T13:09:44.701Z,4.32
2023-05-16T13:12:32.262Z,5.70
2023-05-16T13:15:21.059Z,3.95
2023-05-16T13:18:08.667Z,4.88
2023-05-16T13:20:56.127Z,7.03
2023-05-16T13:23:43.598Z,4.93
2023-05-16T13:26:31.261Z,6.32
2023-05-16T13:29:19.082Z,4.90
2023-05-16T13:32:08.653Z,3.70
2023-05-16T13:34:56.638Z,4.22
2023-05-16T13:37:43.974Z,5.57
2023-05-16T13:40:31.137Z,7.47
2023-05-16T13:43:19.055Z,5.47
2023-05-16T13:46:06.757Z,4.80
2023-05-16T13:48:56.259Z,9.38
2023-05-16T13:51:44.488Z,5.03
2023-05-16T13:54:31.941Z,2.65
2023-05-16T13:57:22.222Z,4.60
2023-05-16T14:03:20.544Z,4.93
2023-05-16T14:06:10.187Z,5.72
2023-05-16T14:08:57.881Z,2.58
2023-05-16T14:11:46.039Z,3.60
2023-05-16T14:14:33.543Z,6.53
2023-05-16T14:17:23.475Z,5.07
2023-05-16T14:20:11.745Z,5.60
2023-05-16T14:23:00.690Z,4.80
2023-05-16T14:25:48.597Z,3.65
2023-05-16T14:28:36.183Z,4.70
2023-05-16T14:31:23.843Z,5.43
2023-05-16T14:34:11.297Z,6.65
2023-05-16T14:36:58.487Z,2.38
2023-05-16T14:39:50.658Z,4.68
2023-05-16T14:42:38.548Z,3.97
2023-05-16T14:45:26.486Z,10.70
2023-05-16T14:48:14.387Z,6.57
2023-05-16T14:51:02.153Z,3.47
2023-05-16T14:53:49.905Z,2.55
2023-05-16T14:56:38.854Z,4.00
2023-05-16T14:59:26.640Z,2.72
2023-05-16T15:02:14.134Z,2.25
2023-05-16T15:05:02.083Z,2.47
2023-05-16T15:07:49.719Z,2.05
2023-05-16T15:10:37.317Z,4.22
2023-05-16T15:13:26.179Z,5.00
2023-05-16T15:16:13.899Z,4.07
2023-05-16T15:19:01.460Z,3.45
2023-05-16T15:21:49.116Z,2.83
2023-05-16T15:24:36.624Z,3.55
2023-05-16T15:27:23.983Z,3.42
2023-05-16T15:30:13.239Z,2.95
2023-05-16T15:33:00.918Z,4.68
2023-05-16T15:35:48.967Z,3.33
2023-05-16T15:38:36.525Z,3.53
2023-05-16T15:41:43.661Z,3.97
2023-05-16T15:44:32.058Z,3.60
2023-05-16T15:47:20.761Z,3.05
2023-05-16T15:50:08.640Z,2.65
2023-05-16T15:52:58.193Z,3.42
2023-05-16T15:55:47.886Z,2.58
2023-05-16T15:58:35.363Z,1.65
2023-05-16T16:01:22.780Z,3.63
2023-05-16T16:04:11.335Z,2.17
2023-05-16T16:06:59.024Z,1.85
2023-05-16T16:09:46.703Z,1.65
2023-05-16T16:12:34.346Z,1.48
2023-05-16T16:15:21.733Z,4.85
2023-05-16T16:18:09.348Z,5.55
2023-05-16T16:20:58.548Z,4.57
2023-05-16T16:23:46.102Z,4.80
2023-05-16T16:26:33.632Z,3.47
2023-05-16T16:29:21.204Z,2.78
2023-05-16T16:32:08.991Z,2.10
2023-05-16T16:34:56.583Z,3.63
2023-05-16T16:38:01.996Z,3.17
2023-05-16T16:40:53.388Z,4.43
2023-05-16T16:43:40.854Z,1.98
2023-05-16T16:46:28.282Z,2.80
2023-05-16T16:49:16.140Z,2.58
2023-05-16T16:52:03.624Z,2.40
2023-05-16T16:54:53.877Z,1.73
2023-05-16T16:57:41.675Z,1.45
2023-05-16T17:00:29.293Z,3.72
2023-05-16T17:03:17.073Z,2.38
2023-05-16T17:06:04.502Z,3.10
2023-05-16T17:08:51.713Z,4.50
2023-05-16T17:11:40.859Z,2.72
2023-05-16T17:14:28.411Z,0.90
2023-05-16T17:17:16.094Z,1.40
2023-05-16T17:20:07.228Z,4.75
2023-05-16T17:22:54.464Z,4.45
2023-05-16T17:25:42.029Z,2.88
2023-05-16T17:28:31.415Z,1.52
2023-05-16T17:31:18.714Z,3.60
2023-05-16T17:34:06.039Z,3.60
2023-05-16T17:36:53.499Z,2.08
2023-05-16T17:39:41.490Z,2.20
2023-05-16T17:42:28.854Z,1.90
2023-05-16T17:45:17.504Z,2.15
2023-05-16T17:48:05.347Z,1.88
2023-05-16T17:50:53.405Z,3.17
2023-05-16T17:53:40.919Z,2.08
2023-05-16T17:56:28.386Z,1.52
2023-05-16T17:59:15.935Z,2.80
2023-05-16T18:02:04.995Z,3.92
2023-05-16T18:04:52.819Z,2.30
2023-05-16T18:07:41.020Z,2.47
2023-05-16T18:10:36.606Z,3.10
2023-05-16T18:13:31.343Z,1.65
2023-05-16T18:16:19.163Z,6.45
2023-05-16T18:19:09.021Z,2.15
2023-05-16T18:21:56.677Z,4.75
2023-05-16T18:24:44.667Z,3.80
2023-05-16T18:27:31.998Z,5.20
2023-05-16T18:30:19.597Z,3.33
2023-05-16T18:33:07.700Z,2.25
2023-05-16T18:35:56.723Z,6.40
2023-05-16T18:38:44.436Z,3.45
2023-05-16T18:41:32.168Z,2.72
2023-05-16T18:44:20.315Z,2.25
2023-05-16T18:47:08.494Z,3.47
2023-05-16T18:49:56.088Z,3.42
2023-05-16T18:52:44.827Z,1.63
2023-05-16T18:55:33.692Z,3.65
2023-05-16T18:58:21.383Z,3.40
2023-05-16T19:01:09.377Z,2.40
2023-05-16T19:03:56.850Z,2.63
2023-05-16T19:06:44.503Z,5.75
2023-05-16T19:09:33.286Z,3.90
2023-05-16T19:12:22.780Z,3.03
2023-05-16T19:15:11.772Z,2.67
2023-05-16T19:17:59.951Z,2.60
2023-05-16T19:20:47.739Z,2.20
2023-05-16T19:23:35.165Z,1.65
2023-05-16T19:26:24.430Z,2.30
2023-05-16T19:29:12.084Z,2.15
2023-05-16T19:31:59.457Z,3.72
2023-05-16T19:34:47.011Z,2.97
2023-05-16T19:37:34.921Z,6.25
2023-05-16T19:40:22.333Z,2.70
2023-05-16T19:43:11.764Z,2.05
2023-05-16T19:45:59.478Z,3.00
2023-05-16T19:48:47.064Z,4.35
2023-05-16T19:51:42.000Z,3.05
2023-05-16T19:54:30.209Z,2.00
2023-05-16T19:57:17.379Z,3.33
2023-05-16T20:00:06.796Z,3.33
2023-05-16T20:03:00.262Z,1.67
2023-05-16T20:05:48.042Z,3.97
2023-05-16T20:08:35.506Z,2.60
2023-05-16T20:11:22.830Z,3.90
2023-05-16T20:14:10.467Z,3.40
2023-05-16T20:17:00.603Z,4.53
2023-05-16T20:19:48.279Z,2.20
2023-05-16T20:22:38.474Z,2.33
2023-05-16T20:25:25.762Z,4.45
2023-05-16T20:28:13.499Z,2.73
2023-05-16T20:31:01.022Z,1.23
2023-05-16T20:33:50.039Z,3.42
2023-05-16T20:36:37.833Z,3.60
2023-05-16T20:39:26.146Z,1.92
2023-05-16T20:42:13.832Z,4.50
2023-05-16T20:45:01.502Z,3.60
2023-05-16T20:47:51.061Z,2.63
2023-05-16T20:50:40.107Z,2.80
2023-05-16T20:53:27.580Z,2.40
2023-05-16T20:56:14.993Z,4.30
2023-05-16T20:59:02.327Z,1.10
2023-05-16T21:01:49.738Z,3.03
2023-05-16T21:04:37.131Z,2.20
2023-05-16T21:07:26.167Z,2.63
2023-05-16T21:10:13.731Z,2.43
2023-05-16T21:13:01.309Z,1.63
2023-05-16T21:15:49.295Z,3.33
2023-05-16T21:18:37.123Z,4.30
2023-05-16T21:21:24.858Z,2.90
2023-05-16T21:24:13.681Z,3.23
2023-05-16T21:27:01.404Z,2.03
2023-05-16T21:29:48.946Z,2.97
2023-05-16T21:32:36.358Z,1.40
2023-05-16T21:35:24.137Z,1.00
2023-05-16T21:38:11.555Z,1.53
2023-05-16T21:41:00.230Z,2.40
2023-05-16T21:43:47.774Z,3.90
2023-05-16T21:46:35.092Z,3.57
2023-05-16T21:49:22.459Z,6.53
2023-05-16T21:52:09.699Z,3.17
2023-05-16T21:54:57.159Z,2.37
2023-05-16T21:57:45.971Z,1.60
2023-05-16T22:00:33.826Z,0.97
2023-05-16T22:03:21.409Z,3.03
2023-05-16T22:06:09.049Z,1.70
2023-05-16T22:08:56.752Z,1.27
2023-05-16T22:11:44.027Z,2.63
2023-05-16T22:14:32.840Z,3.63
2023-05-16T22:17:21.170Z,2.27
2023-05-16T22:20:09.415Z,3.77
2023-05-16T22:22:56.992Z,2.73
2023-05-16T22:25:44.355Z,3.73
2023-05-16T22:28:31.820Z,3.23
2023-05-16T22:31:20.689Z,1.40
2023-05-16T22:34:08.427Z,4.50
2023-05-16T22:36:56.269Z,2.30
2023-05-16T22:39:43.506Z,1.60
2023-05-16T22:42:31.482Z,1.70
2023-05-16T22:45:18.970Z,1.70
2023-05-16T22:48:08.093Z,3.03
2023-05-16T22:50:55.909Z,2.30
2023-05-16T22:53:43.331Z,2.53
2023-05-16T22:56:30.715Z,3.43
2023-05-16T22:59:18.033Z,2.23
2023-05-16T23:02:05.813Z,2.83
2023-05-16T23:04:55.041Z,1.67
2023-05-16T23:07:42.534Z,4.60
2023-05-16T23:10:29.857Z,2.23
2023-05-16T23:13:17.650Z,3.80
2023-05-16T23:16:05.311Z,3.17
2023-05-16T23:18:52.769Z,1.57
2023-05-16T23:21:41.888Z,3.27
2023-05-16T23:24:29.550Z,4.63
2023-05-16T23:27:16.961Z,3.83
2023-05-16T23:30:04.263Z,5.13
2023-05-16T23:32:52.542Z,2.23
2023-05-16T23:35:40.445Z,2.33
2023-05-16T23:38:29.492Z,2.53
2023-05-16T23:41:17.288Z,3.10
2023-05-16T23:44:04.713Z,5.00
2023-05-16T23:46:52.158Z,2.73
2023-05-16T23:49:39.599Z,5.63
2023-05-16T23:52:26.981Z,5.10
2023-05-16T23:55:16.090Z,2.57
2023-05-16T23:58:03.607Z,3.23
